Time;durP1;ratioP1;P1;durP2;ratioP2;P2;SDS_P1;SDS_P2;PMS_P1;PMS_P2;Temp;Humidity;BMP_temperature;BMP_pressure;BME280_temperature;BME280_humidity;BME280_pressure;Samples;Min_cycle;Max_cycle;Signal;HPM_P1;HPM_P2
2022/06/18 00:01:40;;;;;;;6.45;3.83;;;;;;;14.55;60.49;99157.94;5111084;28;20460;-71
2022/06/18 00:04:17;;;;;;;6.70;3.92;;;;;;;14.54;60.50;99161.03;5094468;28;20027;-72
2022/06/18 00:06:50;;;;;;;6.80;4.25;;;;;;;14.49;60.47;99156.41;5111222;28;20069;-72
2022/06/18 00:09:20;;;;;;;7.32;4.03;;;;;;;14.47;60.71;99161.41;5111535;28;20020;-71
2022/06/18 00:14:30;;;;;;;5.82;4.30;;;;;;;14.37;61.02;99164.38;5111623;28;20615;-71
2022/06/18 00:16:56;;;;;;;6.63;4.30;;;;;;;14.32;61.07;99161.72;5113773;27;20031;-70
2022/06/18 00:19:22;;;;;;;6.68;4.40;;;;;;;14.27;61.43;99162.59;5110474;28;20555;-71
2022/06/18 00:21:47;;;;;;;5.72;4.05;;;;;;;14.24;61.37;99169.56;5111088;28;20020;-72
2022/06/18 00:24:19;;;;;;;5.20;4.25;;;;;;;14.21;61.54;99150.84;5112358;27;20028;-71
2022/06/18 00:26:46;;;;;;;6.75;4.00;;;;;;;14.22;61.65;99157.22;5106860;27;20037;-71
2022/06/18 00:29:17;;;;;;;8.02;5.00;;;;;;;14.21;62.06;99153.63;5113105;27;20102;-71
2022/06/18 00:31:42;;;;;;;7.60;4.28;;;;;;;14.19;61.67;99155.88;5111071;27;20048;-71
2022/06/18 00:34:08;;;;;;;8.05;4.15;;;;;;;14.18;61.79;99156.97;5111279;27;20063;-73
2022/06/18 00:36:38;;;;;;;6.35;4.13;;;;;;;14.19;61.86;99150.34;5110840;28;20027;-72
2022/06/18 00:39:04;;;;;;;5.50;4.10;;;;;;;14.13;61.89;99157.91;5110736;28;20062;-72
2022/06/18 00:41:32;;;;;;;6.45;4.22;;;;;;;14.11;62.02;99153.78;5110731;28;20614;-73
2022/06/18 00:44:04;;;;;;;7.57;4.57;;;;;;;14.05;61.62;99153.06;5111806;27;20024;-72
2022/06/18 00:46:51;;;;;;;8.55;4.80;;;;;;;14.02;61.91;99153.69;5109714;27;20031;-71
2022/06/18 00:49:30;;;;;;;10.18;5.05;;;;;;;14.02;62.19;99155.63;5109364;28;20019;-71
2022/06/18 00:52:10;;;;;;;7.32;4.63;;;;;;;14.01;61.99;99154.00;5108281;28;20038;-71
2022/06/18 00:54:54;;;;;;;9.15;4.93;;;;;;;13.96;62.19;99147.44;5095375;28;20056;-72
2022/06/18 00:57:40;;;;;;;12.77;6.00;;;;;;;13.93;62.07;99144.44;5080601;28;20604;-71
2022/06/18 01:00:11;;;;;;;9.00;6.05;;;;;;;13.90;62.32;99145.88;5081950;28;20165;-71
2022/06/18 01:02:44;;;;;;;9.10;6.18;;;;;;;13.89;62.46;99140.66;5098260;28;20024;-71
2022/06/18 01:05:23;;;;;;;10.52;6.47;;;;;;;13.86;62.62;99142.09;5108248;28;20031;-71
2022/06/18 01:08:01;;;;;;;12.50;7.27;;;;;;;13.84;62.95;99136.06;5109737;28;20035;-71
2022/06/18 01:10:33;;;;;;;11.05;6.88;;;;;;;13.87;63.06;99145.66;5102940;28;20354;-71
2022/06/18 01:13:04;;;;;;;11.30;7.22;;;;;;;13.87;63.19;99142.91;5080476;28;20023;-71
2022/06/18 01:15:31;;;;;;;10.70;7.30;;;;;;;13.82;63.58;99139.13;5080911;28;20127;-71
2022/06/18 01:17:56;;;;;;;11.95;7.97;;;;;;;13.81;63.66;99142.16;5103563;27;20024;-71
2022/06/18 01:20:24;;;;;;;13.32;8.02;;;;;;;13.77;63.87;99139.22;5067252;28;20437;-71
2022/06/18 01:23:08;;;;;;;12.02;7.80;;;;;;;13.76;63.84;99139.50;5087703;28;20027;-71
2022/06/18 01:25:33;;;;;;;12.52;7.65;;;;;;;13.73;64.06;99142.84;5087031;28;20039;-71
2022/06/18 01:28:00;;;;;;;14.43;9.07;;;;;;;13.71;64.24;99143.16;5085738;28;20036;-71
2022/06/18 01:30:39;;;;;;;13.82;8.25;;;;;;;13.73;64.23;99137.34;5086915;28;20495;-72
2022/06/18 01:33:07;;;;;;;13.10;8.10;;;;;;;13.73;64.48;99131.81;5076645;28;20147;-72
2022/06/18 01:35:36;;;;;;;12.23;7.45;;;;;;;13.74;64.34;99131.53;5076699;28;20065;-74
2022/06/18 01:38:04;;;;;;;11.55;7.40;;;;;;;13.74;64.60;99134.28;5081974;28;20442;-73
2022/06/18 01:40:39;;;;;;;11.63;7.15;;;;;;;13.71;64.68;99123.88;5084590;28;20617;-73
2022/06/18 01:43:06;;;;;;;12.82;8.00;;;;;;;13.71;64.94;99118.34;5106081;28;20024;-71
2022/06/18 01:45:36;;;;;;;13.35;8.07;;;;;;;13.75;65.06;99124.91;5109532;28;20019;-72
2022/06/18 01:48:18;;;;;;;11.00;8.05;;;;;;;13.76;64.90;99121.03;5109972;28;20029;-72
2022/06/18 01:50:52;;;;;;;14.00;7.97;;;;;;;13.80;64.97;99119.31;5108657;28;20016;-69
2022/06/18 01:53:46;;;;;;;12.13;7.85;;;;;;;13.76;64.83;99115.53;5108684;28;20028;-69
2022/06/18 01:56:22;;;;;;;13.23;8.55;;;;;;;13.76;65.14;99117.44;5097106;28;20483;-70
2022/06/18 01:59:05;;;;;;;11.85;8.15;;;;;;;13.73;65.17;99115.28;5090819;28;20392;-70
2022/06/18 02:01:35;;;;;;;10.88;8.23;;;;;;;13.72;65.30;99120.00;5109716;28;20028;-70
2022/06/18 02:04:02;;;;;;;13.02;8.70;;;;;;;13.70;65.68;99119.47;5091401;28;20126;-70
2022/06/18 02:06:30;;;;;;;11.60;8.60;;;;;;;13.67;65.51;99107.09;5108883;28;20027;-70
2022/06/18 02:08:55;;;;;;;13.70;8.38;;;;;;;13.65;65.76;99112.09;5109128;28;20520;-70
2022/06/18 02:11:22;;;;;;;13.05;8.57;;;;;;;13.62;65.66;99107.19;5108568;28;20107;-70
2022/06/18 02:14:04;;;;;;;12.75;8.65;;;;;;;13.61;65.87;99105.56;5108977;28;20051;-70
2022/06/18 02:16:35;;;;;;;12.13;8.48;;;;;;;13.62;65.69;99100.84;5107668;28;20050;-70
2022/06/18 02:19:04;;;;;;;12.63;8.48;;;;;;;13.62;66.03;99104.44;5107865;28;20357;-69
2022/06/18 02:21:35;;;;;;;11.13;8.48;;;;;;;13.62;66.24;99093.44;5108633;28;20174;-70
2022/06/18 02:24:00;;;;;;;15.75;9.07;;;;;;;13.65;66.02;99100.25;5108394;28;20019;-70
2022/06/18 02:26:28;;;;;;;13.57;8.85;;;;;;;13.63;66.22;99102.50;5109502;27;20024;-70
2022/06/18 02:28:55;;;;;;;13.82;8.38;;;;;;;13.59;66.34;99105.03;5107065;28;20016;-69
2022/06/18 02:31:25;;;;;;;13.00;8.23;;;;;;;13.57;65.93;99098.19;5103439;28;20024;-70
2022/06/18 02:33:58;;;;;;;9.32;7.78;;;;;;;13.53;66.23;99098.78;5107982;28;20425;-70
2022/06/18 02:36:30;;;;;;;11.15;7.60;;;;;;;13.50;66.50;99096.63;5108380;28;20034;-70
2022/06/18 02:38:59;;;;;;;9.35;7.03;;;;;;;13.50;66.63;99093.88;5106650;28;20479;-70
2022/06/18 02:41:25;;;;;;;12.02;7.78;;;;;;;13.49;66.99;99088.66;5108248;28;20051;-71
2022/06/18 02:43:51;;;;;;;12.43;7.57;;;;;;;13.47;66.54;99094.47;5107818;28;20063;-71
2022/06/18 02:46:17;;;;;;;10.32;7.18;;;;;;;13.46;66.60;99090.06;5107891;28;20030;-70
2022/06/18 02:48:43;;;;;;;10.88;7.38;;;;;;;13.47;66.84;99088.16;5108111;28;20461;-70
2022/06/18 02:51:12;;;;;;;10.70;7.35;;;;;;;13.47;67.10;99093.66;5107028;28;20020;-70
2022/06/18 02:53:37;;;;;;;10.77;7.05;;;;;;;13.43;66.82;99087.94;5107591;28;20024;-69
2022/06/18 02:56:06;;;;;;;8.48;7.15;;;;;;;13.42;67.13;99085.47;5108844;27;20039;-70
2022/06/18 02:58:36;;;;;;;10.38;7.38;;;;;;;13.37;67.39;99092.66;5108440;27;20020;-71
2022/06/18 03:01:10;;;;;;;11.40;7.45;;;;;;;13.33;67.46;99099.09;5107692;28;20859;-70
2022/06/18 03:03:38;;;;;;;10.38;7.22;;;;;;;13.27;67.88;99101.06;5088119;28;20023;-70
2022/06/18 03:06:04;;;;;;;10.07;7.07;;;;;;;13.24;67.81;99098.94;5107994;28;20596;-70
2022/06/18 03:08:32;;;;;;;9.43;6.93;;;;;;;13.23;68.24;99098.13;5108031;28;20479;-71
2022/06/18 03:13:45;;;;;;;10.88;6.35;;;;;;;13.27;67.98;99109.34;5107642;28;20089;-73
2022/06/18 03:16:14;;;;;;;10.35;5.90;;;;;;;13.35;68.16;99114.19;5107686;28;20043;-71
2022/06/18 03:18:41;;;;;;;10.57;6.50;;;;;;;13.41;68.23;99103.97;5107864;28;20130;-70
2022/06/18 03:21:10;;;;;;;10.40;6.65;;;;;;;13.45;68.32;99104.97;5106836;28;20110;-70
2022/06/18 03:23:35;;;;;;;13.02;6.68;;;;;;;13.49;68.62;99094.97;5107525;28;20024;-70
2022/06/18 03:26:01;;;;;;;10.57;6.90;;;;;;;13.54;68.33;99099.63;5107294;28;20034;-71
2022/06/18 03:28:27;;;;;;;12.60;6.95;;;;;;;13.59;68.34;99101.47;5087824;28;20377;-70
2022/06/18 03:30:53;;;;;;;12.48;6.75;;;;;;;13.64;68.31;99110.47;5107251;28;20038;-71
2022/06/18 03:33:18;;;;;;;11.48;7.00;;;;;;;13.69;68.44;99104.84;5107021;28;20061;-70
2022/06/18 03:35:47;;;;;;;14.32;7.60;;;;;;;13.72;68.59;99103.47;5107590;28;20048;-70
2022/06/18 03:38:14;;;;;;;10.70;6.47;;;;;;;13.79;68.24;99103.06;5106829;28;20024;-70
2022/06/18 03:40:40;;;;;;;12.30;6.85;;;;;;;13.83;68.36;99110.44;5107929;28;20421;-71
2022/06/18 03:43:05;;;;;;;12.35;7.35;;;;;;;13.90;68.33;99106.44;5107616;28;20024;-70
2022/06/18 03:45:36;;;;;;;12.30;7.47;;;;;;;13.94;68.43;99110.25;5107609;28;20035;-71
2022/06/18 03:48:03;;;;;;;13.23;7.30;;;;;;;13.98;68.40;99105.75;5107533;28;20045;-71
2022/06/18 03:50:29;;;;;;;13.00;7.43;;;;;;;14.06;68.21;99102.31;5107802;28;20038;-71
2022/06/18 03:52:54;;;;;;;12.57;7.30;;;;;;;14.13;68.40;99104.66;5107531;28;20023;-71
2022/06/18 03:55:19;;;;;;;10.32;6.90;;;;;;;14.19;67.83;99100.69;5107083;28;20028;-71
2022/06/18 03:57:45;;;;;;;11.23;6.57;;;;;;;14.26;68.30;99103.06;5107442;28;20028;-70
2022/06/18 04:00:19;;;;;;;12.02;6.88;;;;;;;14.33;68.03;99099.91;5108164;28;20542;-70
2022/06/18 04:02:45;;;;;;;11.27;6.70;;;;;;;14.39;67.93;99104.19;5108991;28;20027;-70
2022/06/18 04:05:10;;;;;;;10.85;7.05;;;;;;;14.47;67.80;99097.94;5108954;28;20436;-71
2022/06/18 04:07:37;;;;;;;12.27;7.20;;;;;;;14.57;67.86;99106.03;5108757;28;20108;-70
2022/06/18 04:10:04;;;;;;;16.23;7.63;;;;;;;14.65;67.69;99100.91;5090309;28;20036;-70
2022/06/18 04:12:30;;;;;;;14.65;7.38;;;;;;;14.68;67.46;99105.81;5108784;28;20403;-71
2022/06/18 04:14:55;;;;;;;14.25;8.32;;;;;;;14.72;67.66;99101.34;5108297;28;20039;-71
2022/06/18 04:17:21;;;;;;;14.68;7.47;;;;;;;14.78;67.29;99096.53;5090834;28;20463;-71
2022/06/18 04:19:47;;;;;;;12.73;7.15;;;;;;;14.85;67.51;99091.41;5108256;28;20057;-71
2022/06/18 04:22:12;;;;;;;14.35;7.22;;;;;;;14.95;67.44;99093.13;5108768;28;20031;-71
2022/06/18 04:24:38;;;;;;;12.35;7.38;;;;;;;15.02;67.05;99088.00;5108741;28;20377;-71
2022/06/18 04:27:04;;;;;;;15.15;7.57;;;;;;;15.10;67.05;99098.31;5108436;28;20185;-70
2022/06/18 04:29:31;;;;;;;13.32;7.18;;;;;;;15.16;66.65;99082.44;5107614;28;20490;-71
2022/06/18 04:31:57;;;;;;;14.10;7.53;;;;;;;15.26;67.13;99090.50;5089551;28;20031;-71
2022/06/18 04:34:22;;;;;;;12.68;6.80;;;;;;;15.35;66.71;99089.75;5108681;28;20027;-71
2022/06/18 04:36:48;;;;;;;10.93;7.00;;;;;;;15.42;66.53;99095.66;5108378;28;20031;-71
2022/06/18 04:39:13;;;;;;;14.82;7.22;;;;;;;15.51;66.45;99098.50;5107515;28;20023;-71
2022/06/18 04:41:39;;;;;;;11.48;6.28;;;;;;;15.58;66.27;99093.34;5091991;28;20058;-70
2022/06/18 04:44:05;;;;;;;14.70;6.50;;;;;;;15.67;66.13;99090.63;5111810;28;20030;-71
2022/06/18 04:46:31;;;;;;;12.02;6.18;;;;;;;15.77;66.44;99093.97;5111871;28;20026;-71
2022/06/18 04:48:58;;;;;;;8.95;5.35;;;;;;;15.89;65.94;99098.13;5112054;28;20464;-71
2022/06/18 04:51:23;;;;;;;9.40;6.00;;;;;;;15.99;65.99;99097.88;5112145;28;20047;-72
2022/06/18 04:53:49;;;;;;;9.75;5.30;;;;;;;16.07;65.52;99099.88;5111238;28;20063;-71
2022/06/18 04:56:15;;;;;;;7.80;5.22;;;;;;;16.16;65.61;99097.16;5111873;28;20035;-71
2022/06/18 04:58:41;;;;;;;9.50;5.35;;;;;;;16.25;65.08;99093.63;5111735;28;20031;-71
2022/06/18 05:01:07;;;;;;;10.13;5.25;;;;;;;16.33;65.42;99093.66;5112252;28;20027;-71
2022/06/18 05:03:33;;;;;;;7.00;4.80;;;;;;;16.40;65.42;99095.13;5111014;28;20039;-70
2022/06/18 05:05:59;;;;;;;10.02;5.00;;;;;;;16.43;64.85;99111.91;5111499;28;20106;-72
2022/06/18 05:08:25;;;;;;;9.18;4.45;;;;;;;16.44;64.81;99099.72;5111380;28;20107;-71
2022/06/18 05:10:51;;;;;;;8.52;4.70;;;;;;;16.48;64.80;99108.19;5111527;28;20455;-71
2022/06/18 05:13:18;;;;;;;7.47;4.32;;;;;;;16.51;64.38;99105.59;5110698;28;20020;-72
2022/06/18 05:15:45;;;;;;;8.77;4.30;;;;;;;16.54;64.79;99104.13;5111156;28;20130;-71
2022/06/18 05:18:16;;;;;;;7.85;4.43;;;;;;;16.58;64.25;99099.59;5111681;28;20076;-71
2022/06/18 05:20:43;;;;;;;9.20;4.47;;;;;;;16.59;64.65;99098.44;5093376;28;20032;-70
2022/06/18 05:23:13;;;;;;;8.07;4.38;;;;;;;16.61;64.27;99093.41;5111776;28;20024;-71
2022/06/18 05:25:39;;;;;;;7.88;4.82;;;;;;;16.66;64.50;99095.22;5111542;28;20547;-72
2022/06/18 05:28:04;;;;;;;9.13;4.85;;;;;;;16.71;64.44;99092.28;5111147;28;20110;-71
2022/06/18 05:30:30;;;;;;;8.15;5.40;;;;;;;16.78;64.42;99089.06;5111002;28;20030;-71
2022/06/18 05:32:55;;;;;;;9.88;5.45;;;;;;;16.87;64.35;99094.63;5092567;28;20019;-71
2022/06/18 05:35:21;;;;;;;8.68;5.22;;;;;;;16.93;64.06;99088.59;5110842;28;20031;-71
2022/06/18 05:37:50;;;;;;;9.30;5.05;;;;;;;17.01;64.46;99097.28;5110687;28;20125;-71
2022/06/18 05:40:16;;;;;;;11.10;5.10;;;;;;;17.08;64.07;99089.31;5110782;28;20474;-71
2022/06/18 05:42:41;;;;;;;9.23;4.43;;;;;;;17.21;63.86;99098.59;5109985;28;20072;-71
2022/06/18 05:45:08;;;;;;;6.93;4.30;;;;;;;17.30;63.80;99098.63;5110648;28;20102;-71
2022/06/18 05:47:34;;;;;;;7.93;4.80;;;;;;;17.40;63.70;99104.66;5110229;28;20021;-71
2022/06/18 05:50:01;;;;;;;9.35;4.60;;;;;;;17.51;63.49;99109.88;5110524;28;20114;-72
2022/06/18 05:52:29;;;;;;;6.63;4.28;;;;;;;17.62;63.34;99110.38;5110482;28;20016;-71
2022/06/18 05:54:55;;;;;;;6.40;3.92;;;;;;;17.70;62.41;99115.09;5110006;28;20077;-71
2022/06/18 05:57:21;;;;;;;7.72;4.18;;;;;;;17.76;62.23;99104.63;5109644;28;20023;-71
2022/06/18 05:59:47;;;;;;;6.88;3.53;;;;;;;17.81;61.67;99098.91;5110276;28;20027;-71
2022/06/18 06:02:15;;;;;;;5.93;3.95;;;;;;;17.84;61.67;99099.06;5111097;27;20114;-72
2022/06/18 06:04:42;;;;;;;7.20;4.03;;;;;;;17.90;61.65;99096.94;5109759;28;20073;-72
2022/06/18 06:07:20;;;;;;;6.07;3.85;;;;;;;17.99;61.22;99096.94;5109988;28;20026;-71
2022/06/18 06:12:31;;;;;;;6.80;4.25;;;;;;;18.16;61.25;99093.31;5093444;28;20076;-71
2022/06/18 06:14:56;;;;;;;5.75;3.70;;;;;;;18.24;61.07;99086.09;5108383;28;20454;-71
2022/06/18 06:17:24;;;;;;;5.47;3.63;;;;;;;18.32;60.75;99082.47;5108887;28;20058;-71
2022/06/18 06:19:50;;;;;;;4.82;3.20;;;;;;;18.41;60.77;99076.88;5109895;28;20515;-71
2022/06/18 06:22:16;;;;;;;6.32;3.42;;;;;;;18.50;60.60;99074.88;5110349;28;20059;-71
2022/06/18 06:24:41;;;;;;;6.80;3.58;;;;;;;18.58;60.42;99074.00;5109781;28;20148;-71
2022/06/18 06:27:08;;;;;;;8.23;3.75;;;;;;;18.68;60.45;99081.13;5110110;28;20050;-71
2022/06/18 06:29:34;;;;;;;6.75;4.05;;;;;;;18.80;60.28;99079.63;5110106;28;20323;-71
2022/06/18 06:31:59;;;;;;;7.55;3.63;;;;;;;18.88;60.18;99071.22;5110285;28;20463;-71
2022/06/18 06:34:24;;;;;;;6.43;3.70;;;;;;;18.98;60.04;99063.66;5109690;28;20020;-71
2022/06/18 06:36:51;;;;;;;7.03;3.08;;;;;;;19.12;60.25;99071.75;5091377;28;20122;-71
2022/06/18 06:39:16;;;;;;;4.50;3.08;;;;;;;19.16;57.47;99067.13;5109246;28;20467;-71
2022/06/18 06:41:43;;;;;;;4.78;3.10;;;;;;;19.25;57.88;99067.88;5110031;28;20023;-70
2022/06/18 06:44:09;;;;;;;4.63;2.78;;;;;;;19.31;57.51;99074.88;5109327;28;20131;-74
2022/06/18 06:46:35;;;;;;;5.80;2.83;;;;;;;19.39;57.92;99075.13;5108263;28;20028;-73
2022/06/18 06:49:00;;;;;;;5.75;2.58;;;;;;;19.48;57.83;99076.69;5109566;28;20447;-73
2022/06/18 06:51:28;;;;;;;4.05;2.72;;;;;;;19.57;56.88;99076.59;5105960;28;20306;-73
2022/06/18 06:53:54;;;;;;;3.70;2.58;;;;;;;19.64;56.93;99076.03;5107226;28;20035;-73
2022/06/18 06:59:07;;;;;;;4.32;2.58;;;;;;;19.74;56.66;99075.63;5108462;28;20047;-74
2022/06/18 07:01:34;;;;;;;3.95;2.22;;;;;;;19.82;56.19;99079.47;5107967;27;20050;-74
2022/06/18 07:04:00;;;;;;;3.03;2.67;;;;;;;19.90;56.37;99077.78;5107631;28;20108;-73
2022/06/18 07:06:25;;;;;;;5.88;2.60;;;;;;;19.99;56.00;99077.69;5107788;28;20028;-74
2022/06/18 07:08:52;;;;;;;4.25;2.38;;;;;;;20.07;56.28;99072.00;5107172;28;20038;-74
2022/06/18 07:11:18;;;;;;;4.75;2.50;;;;;;;20.16;55.93;99079.47;5089616;28;20028;-74
2022/06/18 07:13:44;;;;;;;3.78;2.33;;;;;;;20.23;55.81;99074.94;5107143;28;20047;-73
2022/06/18 07:16:14;;;;;;;4.35;2.55;;;;;;;20.30;55.67;99067.97;5107038;28;20396;-74
2022/06/18 07:18:40;;;;;;;3.78;2.60;;;;;;;20.37;55.85;99069.06;5106912;28;20027;-73
2022/06/18 07:21:12;;;;;;;6.90;2.90;;;;;;;20.47;55.43;99070.56;5107526;28;20023;-73
2022/06/18 07:23:37;;;;;;;5.32;2.80;;;;;;;20.56;55.46;99067.66;5106817;28;20019;-73
2022/06/18 07:26:03;;;;;;;4.00;2.78;;;;;;;20.62;55.00;99069.03;5107306;28;20027;-74
2022/06/18 07:28:28;;;;;;;5.57;2.88;;;;;;;20.63;53.76;99064.28;5108019;28;20468;-74
2022/06/18 07:30:54;;;;;;;4.57;2.90;;;;;;;20.66;53.58;99058.81;5106032;28;20103;-74
2022/06/18 07:33:23;;;;;;;6.53;3.03;;;;;;;20.70;53.83;99072.06;5106670;28;20111;-74
2022/06/18 07:35:49;;;;;;;5.53;2.75;;;;;;;20.77;54.15;99064.75;5108313;28;20034;-74
2022/06/18 07:38:14;;;;;;;4.78;2.50;;;;;;;20.87;54.60;99076.59;5107966;28;20107;-74
2022/06/18 07:40:44;;;;;;;3.83;2.30;;;;;;;20.95;53.76;99072.88;5108765;28;20110;-74
2022/06/18 07:43:12;;;;;;;;;;;;;;;21.02;53.77;99067.50;5107478;28;20023;-73
2022/06/18 07:45:37;;;;;;;3.50;2.05;;;;;;;21.10;53.20;99063.78;5107085;28;19919;-74
2022/06/18 07:48:03;;;;;;;5.63;1.70;;;;;;;21.17;52.27;99057.63;5108132;28;20027;-74
2022/06/18 07:50:30;;;;;;;2.65;1.60;;;;;;;21.26;52.49;99060.25;5106757;28;20038;-73
2022/06/18 07:52:55;;;;;;;2.17;1.73;;;;;;;21.31;51.07;99057.22;5108093;28;20540;-74
2022/06/18 07:55:24;;;;;;;3.45;1.70;;;;;;;21.38;51.42;99057.44;5105211;28;20067;-72
2022/06/18 07:57:50;;;;;;;2.67;1.50;;;;;;;21.48;51.34;99047.72;5088596;28;20384;-72
2022/06/18 08:00:18;;;;;;;3.20;1.70;;;;;;;21.59;50.58;99050.81;5106805;28;20050;-73
2022/06/18 08:02:45;;;;;;;2.92;1.60;;;;;;;21.68;50.73;99043.13;5105871;28;20148;-72
2022/06/18 08:05:12;;;;;;;2.95;1.65;;;;;;;21.79;49.25;99048.22;5108303;28;20051;-74
2022/06/18 08:07:39;;;;;;;2.45;1.67;;;;;;;21.89;48.83;99042.06;5108532;28;20050;-75
2022/06/18 08:10:06;;;;;;;2.22;1.85;;;;;;;22.02;49.17;99042.81;5107965;28;20396;-75
2022/06/18 08:12:33;;;;;;;4.45;1.75;;;;;;;22.09;48.03;99043.00;5107968;28;20475;-73
2022/06/18 08:14:58;;;;;;;4.18;1.65;;;;;;;22.18;48.63;99040.03;5110710;28;20110;-73
2022/06/18 08:17:25;;;;;;;3.60;1.67;;;;;;;22.28;48.13;99036.69;5109036;28;20154;-75
2022/06/18 08:19:50;;;;;;;2.40;1.83;;;;;;;22.37;48.78;99027.31;5111888;28;20036;-74
2022/06/18 08:22:16;;;;;;;3.10;1.65;;;;;;;22.40;47.40;99021.81;5107965;28;20471;-73
2022/06/18 08:24:42;;;;;;;1.60;1.50;;;;;;;22.46;48.53;99014.00;5110226;28;20114;-74
2022/06/18 08:27:07;;;;;;;3.47;1.80;;;;;;;22.55;48.16;99002.59;5109299;28;20016;-74
2022/06/18 08:29:34;;;;;;;1.63;1.52;;;;;;;22.60;47.60;99008.75;5110266;27;20103;-73
2022/06/18 08:32:00;;;;;;;2.15;1.77;;;;;;;22.67;47.06;99007.25;5108800;28;20031;-74
2022/06/18 08:34:25;;;;;;;4.00;1.75;;;;;;;22.71;47.27;99005.38;5110584;28;20089;-74
2022/06/18 08:36:51;;;;;;;3.20;1.83;;;;;;;22.71;47.01;99002.56;5111266;28;20515;-74
2022/06/18 08:39:17;;;;;;;3.78;1.88;;;;;;;22.76;47.59;99007.88;5110035;28;20472;-74
2022/06/18 08:42:03;;;;;;;3.42;1.75;;;;;;;22.85;46.88;99007.66;5111039;28;20372;-74
2022/06/18 08:44:40;;;;;;;2.67;1.55;;;;;;;22.92;46.85;98999.44;5110358;28;20019;-73
2022/06/18 08:47:36;;;;;;;2.47;1.70;;;;;;;22.94;45.63;98996.28;5110929;28;20371;-74
2022/06/18 08:50:04;;;;;;;2.83;1.80;;;;;;;22.96;46.36;98997.53;5110080;28;20047;-74
2022/06/18 08:52:35;;;;;;;2.63;1.67;;;;;;;23.04;46.87;98982.53;5109425;28;20031;-73
2022/06/18 08:55:26;;;;;;;3.97;1.67;;;;;;;23.19;47.35;98983.63;5109194;28;20144;-74
2022/06/18 08:58:11;;;;;;;3.45;1.75;;;;;;;23.31;46.69;98981.88;5110836;28;20114;-74
2022/06/18 09:00:50;;;;;;;1.73;1.50;;;;;;;23.37;46.59;98991.59;5110445;28;20106;-73
2022/06/18 09:03:28;;;;;;;6.22;2.20;;;;;;;23.43;46.26;98992.94;5111375;28;20034;-74
2022/06/18 09:06:22;;;;;;;4.60;1.60;;;;;;;23.44;44.70;98999.31;5092938;28;20694;-74
2022/06/18 09:08:55;;;;;;;3.42;1.70;;;;;;;23.45;43.82;98987.75;5109361;28;20050;-73
2022/06/18 09:11:48;;;;;;;3.08;1.60;;;;;;;23.51;44.05;98985.47;5110421;28;20081;-74
2022/06/18 09:14:22;;;;;;;1.70;1.50;;;;;;;23.59;43.80;98987.22;5108121;28;20051;-73
2022/06/18 09:16:59;;;;;;;2.58;1.60;;;;;;;23.69;42.91;98987.78;5109041;28;20023;-73
2022/06/18 09:19:28;;;;;;;2.00;1.58;;;;;;;23.78;42.85;98988.34;5109278;28;20050;-74
2022/06/18 09:21:56;;;;;;;2.22;1.85;;;;;;;23.87;42.77;98982.50;5075183;28;20403;-73
2022/06/18 09:24:34;;;;;;;2.67;1.60;;;;;;;23.90;41.67;98973.34;5108712;28;20544;-74
2022/06/18 09:27:04;;;;;;;2.13;1.30;;;;;;;23.92;42.65;98965.38;5090474;28;20386;-73
2022/06/18 09:29:46;;;;;;;1.77;1.52;;;;;;;23.96;42.08;98977.47;5108664;27;20586;-73
2022/06/18 09:32:29;;;;;;;2.05;1.40;;;;;;;23.97;42.36;98976.28;5090706;28;20529;-73
2022/06/18 09:35:15;;;;;;;1.83;1.30;;;;;;;23.98;42.22;98977.09;5109591;28;20051;-74
2022/06/18 09:37:54;;;;;;;4.53;1.60;;;;;;;24.03;41.64;98988.81;5109704;27;20034;-74
2022/06/18 09:40:29;;;;;;;3.33;1.70;;;;;;;24.11;41.98;98969.34;5110558;27;20030;-74
2022/06/18 09:43:14;;;;;;;1.52;1.42;;;;;;;24.13;42.36;98983.78;5111997;27;20147;-73
2022/06/18 09:45:48;;;;;;;1.77;1.48;;;;;;;24.21;42.69;98977.09;5107955;28;20039;-70
2022/06/18 09:48:14;;;;;;;2.90;1.67;;;;;;;24.36;43.31;98975.34;5109951;28;20024;-72
2022/06/18 09:51:01;;;;;;;2.80;1.58;;;;;;;24.54;42.85;98981.22;5109837;27;20551;-75
2022/06/18 09:53:31;;;;;;;4.97;1.60;;;;;;;24.61;42.47;98981.31;5109586;28;20417;-77
2022/06/18 09:56:08;;;;;;;2.55;1.50;;;;;;;24.64;42.86;98971.31;5110335;27;20034;-74
2022/06/18 09:58:41;;;;;;;2.63;1.70;;;;;;;24.70;42.46;98977.41;5110267;28;20111;-73
2022/06/18 10:01:09;;;;;;;2.42;1.98;;;;;;;24.72;41.72;98972.25;5110165;27;20065;-72
2022/06/18 10:06:57;;;;;;;5.13;1.60;;;;;;;24.71;42.71;98962.19;5075226;27;20098;-73
2022/06/18 10:09:47;;;;;;;3.15;1.50;;;;;;;24.74;42.12;98970.72;5104136;27;20024;-72
2022/06/18 10:12:23;;;;;;;1.70;1.40;;;;;;;24.77;42.29;98960.72;5107481;28;20034;-72
2022/06/18 10:14:53;;;;;;;2.35;1.40;;;;;;;24.77;41.86;98966.31;5108374;27;20056;-71
2022/06/18 10:17:30;;;;;;;;;;;;;;;24.77;41.75;98967.16;5091556;28;20033;-72
2022/06/18 10:20:14;;;;;;;3.30;1.80;;;;;;;24.75;42.23;98965.88;5108056;28;19930;-72
2022/06/18 10:22:57;;;;;;;1.48;1.20;;;;;;;24.76;42.66;98959.91;5109102;28;20024;-72
2022/06/18 10:25:46;;;;;;;7.30;1.80;;;;;;;24.87;40.44;98959.22;5091205;28;20039;-74
2022/06/18 10:28:30;;;;;;;2.55;1.30;;;;;;;24.93;40.93;98969.75;5108519;28;20093;-71
2022/06/18 10:31:09;;;;;;;2.78;1.40;;;;;;;25.00;40.88;98951.41;5109055;28;20106;-71
2022/06/18 10:33:49;;;;;;;3.20;1.50;;;;;;;25.11;40.94;98941.91;5109937;28;20479;-71
2022/06/18 10:36:30;;;;;;;2.42;1.40;;;;;;;25.27;40.98;98936.06;5103394;27;20119;-69
2022/06/18 10:39:12;;;;;;;3.38;1.48;;;;;;;25.49;41.46;98941.94;5107640;28;20527;-70
2022/06/18 10:42:03;;;;;;;3.45;1.88;;;;;;;25.60;41.10;98921.56;5090689;28;20105;-71
2022/06/18 10:45:08;;;;;;;2.60;1.30;;;;;;;25.66;40.73;98925.66;5109256;27;20027;-73
2022/06/18 10:47:37;;;;;;;1.80;1.25;;;;;;;25.63;40.86;98916.00;5109777;27;20111;-71
2022/06/18 10:50:13;;;;;;;1.65;1.48;;;;;;;25.63;40.70;98910.41;5104610;27;20023;-71
2022/06/18 10:52:39;;;;;;;2.10;1.40;;;;;;;25.60;40.25;98905.56;5110554;27;20027;-72
2022/06/18 10:55:21;;;;;;;2.83;1.33;;;;;;;25.56;40.06;98905.50;5110898;27;20028;-72
2022/06/18 10:57:48;;;;;;;1.70;1.60;;;;;;;25.57;40.83;98897.91;5089917;28;20024;-71
2022/06/18 11:00:25;;;;;;;1.65;1.13;;;;;;;25.60;40.21;98888.69;5107894;28;20020;-71
2022/06/18 11:02:57;;;;;;;2.65;1.40;;;;;;;25.64;40.23;98877.47;5109143;27;20028;-72
2022/06/18 11:05:27;;;;;;;3.95;2.00;;;;;;;25.69;41.06;98877.13;5108830;28;20026;-73
2022/06/18 11:07:54;;;;;;;1.70;1.60;;;;;;;25.72;40.22;98879.16;5108736;28;20060;-71
2022/06/18 11:10:34;;;;;;;3.58;1.38;;;;;;;25.69;39.10;98894.78;5108094;28;20027;-72
2022/06/18 11:13:01;;;;;;;3.22;1.80;;;;;;;25.69;39.64;98888.38;5107803;28;20031;-73
2022/06/18 11:15:36;;;;;;;3.53;1.50;;;;;;;25.66;38.49;98886.34;5108139;28;20822;-73
2022/06/18 11:18:25;;;;;;;1.60;1.45;;;;;;;25.66;39.21;98884.34;5107576;28;20120;-72
2022/06/18 11:20:59;;;;;;;1.40;1.30;;;;;;;25.70;38.93;98887.97;5107981;28;20043;-72
2022/06/18 11:23:25;;;;;;;1.50;1.23;;;;;;;25.73;38.68;98877.97;5110315;28;20051;-72
2022/06/18 11:25:54;;;;;;;2.25;1.17;;;;;;;25.82;38.55;98877.63;5109956;28;20519;-74
2022/06/18 11:28:21;;;;;;;2.75;1.40;;;;;;;25.76;37.35;98880.00;5110553;28;20019;-73
2022/06/18 11:30:49;;;;;;;1.90;1.33;;;;;;;25.77;36.88;98877.97;5108898;28;20039;-72
2022/06/18 11:33:50;;;;;;;2.40;1.27;;;;;;;25.83;37.10;98874.44;5105908;28;20032;-71
2022/06/18 11:36:18;;;;;;;2.58;1.40;;;;;;;25.87;37.14;98871.66;5108524;28;20027;-74
2022/06/18 11:38:56;;;;;;;2.33;1.33;;;;;;;25.90;38.13;98862.44;5090099;28;20043;-74
2022/06/18 11:41:44;;;;;;;4.18;1.40;;;;;;;25.99;38.36;98864.91;5108841;28;20051;-74
2022/06/18 11:44:19;;;;;;;2.00;1.33;;;;;;;26.10;38.63;98860.16;5108944;28;20020;-74
2022/06/18 11:46:58;;;;;;;6.47;1.83;;;;;;;26.25;38.28;98869.53;5092559;28;20118;-74
2022/06/18 11:49:30;;;;;;;1.88;1.20;;;;;;;26.24;36.98;98853.84;5113010;28;20030;-74
2022/06/18 11:52:01;;;;;;;3.65;1.40;;;;;;;26.26;37.75;98850.66;5114084;28;20080;-73
2022/06/18 11:54:35;;;;;;;2.55;1.38;;;;;;;26.34;37.67;98852.28;5113304;28;20110;-74
2022/06/18 11:57:22;;;;;;;3.33;1.70;;;;;;;26.48;38.68;98854.38;5113864;28;20023;-73
2022/06/18 12:00:17;;;;;;;2.22;1.40;;;;;;;26.56;38.89;98841.94;5112292;28;20036;-74
2022/06/18 12:03:19;;;;;;;1.38;1.27;;;;;;;26.68;38.44;98845.63;5111998;28;20031;-75